Terminal Aerodrome Forecast
Issued by NWS Sterling, VA

Current Version | Previous Version | Graphics & Text | Print | Product List | Glossary On
Versions: 1 2 3 4 5 6 7 8 9 10 11 12 13 14 15 16
557
FTUS41 KLWX 231726
TAFMRB
TAF
KMRB 231726Z 2318/2418 30004KT P6SM FEW150 FEW250
     FM240900 36005KT P6SM FEW080 SCT150
     FM241200 01006KT P6SM BKN060 BKN080=

USA.gov is the U.S. government's official web portal to all federal, state and local government web resources and services.